Time;durP1;ratioP1;P1;durP2;ratioP2;P2;SDS_P1;SDS_P2;PMS_P1;PMS_P2;Temp;Humidity;BMP_temperature;BMP_pressure;BME280_temperature;BME280_humidity;BME280_pressure;Samples;Min_cycle;Max_cycle;Signal;HPM_P1;HPM_P2
2021/06/18 00:01:41;;;;;;;40.40;23.20;;;;;;;16.46;71.12;90844.28;4965721;28;20035;-85
2021/06/18 00:04:09;;;;;;;40.65;23.75;;;;;;;16.33;71.31;90840.44;4981602;28;20050;-86
2021/06/18 00:06:40;;;;;;;46.50;27.95;;;;;;;16.24;71.47;90838.84;4965689;28;20574;-85
2021/06/18 00:09:17;;;;;;;46.58;26.27;;;;;;;16.13;72.05;90843.28;4966249;28;20056;-85
2021/06/18 00:11:49;;;;;;;36.38;21.63;;;;;;;16.09;71.89;90834.63;4981732;28;20098;-86
2021/06/18 00:14:27;;;;;;;38.25;19.88;;;;;;;16.17;71.77;90825.66;4981994;28;20049;-86
2021/06/18 00:17:08;;;;;;;47.30;24.13;;;;;;;16.05;72.34;90823.31;4980827;28;20045;-86
2021/06/18 00:19:50;;;;;;;38.17;21.15;;;;;;;16.15;71.85;90822.66;4965780;28;20018;-86
2021/06/18 00:22:25;;;;;;;33.35;16.98;;;;;;;16.08;71.81;90827.84;4967065;28;20484;-85
2021/06/18 00:25:06;;;;;;;27.75;14.70;;;;;;;16.04;72.40;90829.66;4982596;28;20027;-86
2021/06/18 00:27:44;;;;;;;25.92;13.20;;;;;;;16.18;71.47;90835.06;4967660;28;20510;-86
2021/06/18 00:30:18;;;;;;;24.75;13.60;;;;;;;16.04;71.90;90834.94;4967018;28;20030;-86
2021/06/18 00:32:45;;;;;;;25.70;14.98;;;;;;;15.88;72.68;90824.66;4966379;28;20030;-86
2021/06/18 00:35:26;;;;;;;31.40;17.15;;;;;;;15.96;72.74;90836.75;4982897;28;20492;-86
2021/06/18 00:38:05;;;;;;;54.42;27.30;;;;;;;15.90;73.04;90840.06;4967830;28;20027;-85
2021/06/18 00:40:47;;;;;;;48.63;24.95;;;;;;;15.68;73.26;90828.59;4967336;28;20507;-86
2021/06/18 00:43:27;;;;;;;30.60;17.95;;;;;;;15.60;73.43;90829.63;4984263;28;20034;-86
2021/06/18 00:46:07;;;;;;;28.10;15.93;;;;;;;15.54;73.44;90829.94;4988864;28;20081;-84
2021/06/18 00:48:43;;;;;;;25.25;13.88;;;;;;;15.50;73.66;90833.66;4996850;28;20038;-85
2021/06/18 00:51:27;;;;;;;20.35;11.75;;;;;;;15.57;72.10;90838.97;4995718;28;20041;-84
2021/06/18 00:54:06;;;;;;;23.65;14.85;;;;;;;15.49;72.91;90838.16;4974112;28;20049;-84
2021/06/18 00:56:44;;;;;;;30.80;15.02;;;;;;;15.31;74.41;90845.06;4962003;28;20145;-84
2021/06/18 00:59:21;;;;;;;26.98;14.63;;;;;;;15.20;74.37;90839.72;4977151;28;20022;-82
2021/06/18 01:02:01;;;;;;;26.50;15.50;;;;;;;15.26;74.95;90833.03;4961587;28;20034;-84
2021/06/18 01:04:36;;;;;;;23.13;13.07;;;;;;;15.25;74.24;90849.13;4978086;28;20443;-84
2021/06/18 01:07:30;;;;;;;25.13;14.75;;;;;;;15.36;72.96;90850.00;4961467;28;20034;-84
2021/06/18 01:10:24;;;;;;;25.20;13.73;;;;;;;15.44;72.58;90850.81;4979134;28;20030;-84
2021/06/18 01:13:23;;;;;;;26.48;13.38;;;;;;;15.27;73.29;90842.41;4993897;28;20034;-84
2021/06/18 01:16:24;;;;;;;20.65;12.55;;;;;;;15.19;72.96;90834.78;4993740;28;20022;-84
2021/06/18 01:19:19;;;;;;;23.55;13.27;;;;;;;15.22;72.82;90832.22;4976554;28;20092;-84
2021/06/18 01:22:13;;;;;;;21.20;14.02;;;;;;;15.32;71.86;90835.31;4993474;28;20373;-84
2021/06/18 01:25:11;;;;;;;22.08;12.73;;;;;;;15.28;72.44;90837.91;4960384;28;20030;-84
2021/06/18 01:28:29;;;;;;;23.95;11.82;;;;;;;15.15;72.56;90824.25;4975113;28;20030;-84
2021/06/18 01:31:08;;;;;;;17.90;11.25;;;;;;;15.11;73.18;90823.47;4952787;28;20045;-84
2021/06/18 01:33:45;;;;;;;23.73;12.90;;;;;;;15.05;73.21;90819.63;4976982;28;20514;-84
2021/06/18 01:36:26;;;;;;;25.30;13.02;;;;;;;14.98;73.34;90819.56;4944457;28;20031;-84
2021/06/18 01:39:09;;;;;;;20.58;12.52;;;;;;;14.86;73.34;90807.41;4961537;28;20022;-84
2021/06/18 01:41:48;;;;;;;22.35;12.38;;;;;;;14.93;73.43;90806.75;4960667;28;20054;-84
2021/06/18 01:44:30;;;;;;;24.20;12.45;;;;;;;14.91;73.43;90803.72;4961011;28;20022;-84
2021/06/18 01:47:10;;;;;;;23.50;12.88;;;;;;;14.81;73.74;90797.25;4960911;28;20484;-85
2021/06/18 01:49:46;;;;;;;20.45;12.48;;;;;;;14.76;73.64;90797.53;4978163;28;20030;-85
2021/06/18 01:52:26;;;;;;;20.13;12.40;;;;;;;14.70;74.15;90799.75;4990901;28;20125;-84
2021/06/18 01:55:08;;;;;;;25.80;12.98;;;;;;;14.65;74.52;90780.94;4976756;28;20026;-84
2021/06/18 01:57:50;;;;;;;24.52;13.38;;;;;;;14.66;74.61;90788.44;4977021;28;20113;-84
2021/06/18 02:00:33;;;;;;;23.70;13.13;;;;;;;14.67;74.28;90789.97;4961270;28;20484;-84
2021/06/18 02:03:03;;;;;;;26.38;12.65;;;;;;;14.70;73.55;90791.09;5053460;23;20053;-85
2021/06/18 02:05:42;;;;;;;20.50;12.48;;;;;;;14.58;74.11;90784.22;4996995;28;20052;-86
2021/06/18 02:08:14;;;;;;;22.80;13.35;;;;;;;14.63;75.53;90788.38;4997264;28;20112;-86
2021/06/18 02:10:49;;;;;;;30.38;14.65;;;;;;;14.78;76.70;90785.59;4982065;28;20033;-86
2021/06/18 02:13:25;;;;;;;29.08;14.00;;;;;;;14.78;76.38;90777.72;4981844;28;20026;-87
2021/06/18 02:15:59;;;;;;;22.40;13.35;;;;;;;14.72;74.66;90784.38;4982446;28;20026;-86
2021/06/18 02:18:42;;;;;;;25.67;13.90;;;;;;;14.47;75.40;90778.03;4981802;28;20030;-87
2021/06/18 02:21:17;;;;;;;22.73;12.63;;;;;;;14.47;75.18;90776.19;4982424;28;20021;-85
2021/06/18 02:23:53;;;;;;;24.60;13.55;;;;;;;14.43;75.67;90774.63;4981458;28;20491;-88
2021/06/18 02:26:35;;;;;;;22.25;13.18;;;;;;;14.44;75.84;90776.13;4981670;28;20034;-86
2021/06/18 02:29:15;;;;;;;27.02;13.48;;;;;;;14.41;75.76;90782.06;4982111;28;20021;-86
2021/06/18 02:31:50;;;;;;;27.55;14.75;;;;;;;14.44;76.73;90781.38;4997719;28;20575;-85
2021/06/18 02:34:33;;;;;;;26.15;15.52;;;;;;;14.48;77.10;90788.16;4981464;28;20045;-86
2021/06/18 02:37:12;;;;;;;23.08;12.60;;;;;;;14.49;76.70;90786.31;4998770;28;20081;-85
2021/06/18 02:39:50;;;;;;;23.00;12.52;;;;;;;14.53;75.67;90805.50;5014209;28;20104;-86
2021/06/18 02:42:29;;;;;;;27.77;13.77;;;;;;;14.42;76.46;90799.34;4980994;28;20018;-88
2021/06/18 02:45:12;;;;;;;25.48;13.20;;;;;;;14.32;76.13;90803.31;4981511;28;20026;-86
2021/06/18 02:48:00;;;;;;;29.15;14.20;;;;;;;14.34;76.17;90799.22;4998039;28;20495;-85
2021/06/18 02:50:40;;;;;;;29.73;13.07;;;;;;;14.33;76.70;90802.19;4993802;28;20034;-87
2021/06/18 02:53:23;;;;;;;25.83;13.57;;;;;;;14.25;76.10;90806.59;4977131;28;20023;-86
2021/06/18 02:56:11;;;;;;;25.27;13.32;;;;;;;14.25;76.13;90809.19;4961914;28;20022;-86
2021/06/18 02:58:47;;;;;;;24.27;13.70;;;;;;;14.35;76.52;90810.47;4993922;28;20022;-86
2021/06/18 03:01:20;;;;;;;27.00;13.82;;;;;;;14.26;77.52;90804.72;4977566;28;20089;-86
2021/06/18 03:03:56;;;;;;;25.50;15.60;;;;;;;14.27;77.46;90809.59;4978741;28;20026;-87
2021/06/18 03:06:37;;;;;;;27.80;14.68;;;;;;;14.20;77.07;90812.09;4978478;28;20030;-85
2021/06/18 03:09:13;;;;;;;24.50;14.13;;;;;;;14.21;76.83;90808.41;4977015;28;20121;-87
2021/06/18 03:11:49;;;;;;;24.50;13.18;;;;;;;14.15;77.07;90812.41;4978133;28;20061;-86
2021/06/18 03:14:26;;;;;;;27.08;14.25;;;;;;;14.10;77.20;90820.59;4977959;28;20480;-86
2021/06/18 03:17:06;;;;;;;27.95;14.57;;;;;;;14.11;77.82;90809.00;4977957;28;20049;-87
2021/06/18 03:19:43;;;;;;;27.98;14.70;;;;;;;14.18;77.77;90792.63;4978321;28;20054;-85
2021/06/18 03:22:17;;;;;;;28.67;14.90;;;;;;;14.31;77.86;90799.94;4978908;28;20068;-85
2021/06/18 03:24:51;;;;;;;;;;;;;;;14.23;77.73;90797.56;4978969;28;20035;-86
2021/06/18 03:27:27;;;;;;;23.95;13.75;;;;;;;14.24;77.41;90805.06;4978492;28;19910;-86
2021/06/18 03:30:06;;;;;;;25.45;14.82;;;;;;;14.27;76.90;90804.34;4978537;28;20519;-85
2021/06/18 03:32:42;;;;;;;33.00;16.35;;;;;;;14.33;77.60;90802.19;4977619;28;20030;-86
2021/06/18 03:35:19;;;;;;;30.83;16.65;;;;;;;14.40;79.20;90806.78;4978333;28;20492;-87
2021/06/18 03:37:58;;;;;;;32.97;16.35;;;;;;;14.48;79.88;90798.66;4978384;28;20038;-86
2021/06/18 03:40:34;;;;;;;29.35;15.88;;;;;;;14.63;79.32;90799.66;4977639;28;20088;-85
2021/06/18 03:43:14;;;;;;;27.92;14.05;;;;;;;15.03;76.60;90814.00;4962050;28;20652;-85
2021/06/18 03:46:01;;;;;;;27.52;15.75;;;;;;;14.83;76.54;90810.75;4993958;28;20065;-86
2021/06/18 03:48:39;;;;;;;33.80;16.13;;;;;;;14.73;76.32;90814.75;4994246;28;20031;-87
2021/06/18 03:51:13;;;;;;;31.15;16.02;;;;;;;14.72;76.62;90807.25;5014401;28;20070;-86
2021/06/18 03:53:54;;;;;;;26.53;15.37;;;;;;;14.64;77.22;90809.03;4983117;28;20072;-86
2021/06/18 03:56:31;;;;;;;34.35;14.85;;;;;;;14.72;77.37;90813.25;4983737;28;20268;-85
2021/06/18 03:59:07;;;;;;;24.13;15.52;;;;;;;14.78;77.51;90811.06;4984200;28;20034;-86
2021/06/18 04:01:45;;;;;;;29.15;15.65;;;;;;;14.87;77.75;90801.06;5000808;28;20022;-86
2021/06/18 04:04:23;;;;;;;28.80;16.92;;;;;;;14.89;78.02;90804.09;4984727;28;20025;-87
2021/06/18 04:07:02;;;;;;;23.30;14.35;;;;;;;15.00;77.33;90807.59;4985239;28;20026;-86
2021/06/18 04:09:32;;;;;;;28.13;15.07;;;;;;;15.09;77.50;90799.47;5017302;28;20034;-86
2021/06/18 04:12:11;;;;;;;28.70;15.55;;;;;;;15.22;77.08;90797.34;4988346;28;20029;-87
2021/06/18 04:14:56;;;;;;;28.45;15.15;;;;;;;15.27;77.07;90797.78;4991177;28;20030;-87
2021/06/18 04:17:36;;;;;;;30.73;15.40;;;;;;;15.37;77.09;90796.41;4979863;28;20026;-86
2021/06/18 04:20:14;;;;;;;24.08;15.68;;;;;;;15.48;76.86;90793.88;4948743;28;20022;-86
2021/06/18 04:22:51;;;;;;;26.67;15.20;;;;;;;15.51;76.30;90787.88;4964144;28;20405;-85
2021/06/18 04:25:28;;;;;;;29.73;16.33;;;;;;;15.61;76.10;90796.97;4980560;28;20380;-87
2021/06/18 04:28:05;;;;;;;32.10;15.45;;;;;;;15.66;76.67;90794.81;4977215;28;20094;-86
2021/06/18 04:30:45;;;;;;;26.50;14.45;;;;;;;15.81;75.79;90798.31;4964587;28;20023;-86
2021/06/18 04:33:24;;;;;;;26.40;14.82;;;;;;;15.92;74.69;90801.03;4963861;28;20242;-86
2021/06/18 04:36:02;;;;;;;23.60;14.05;;;;;;;16.02;74.96;90795.88;4996206;28;20387;-87
2021/06/18 04:38:42;;;;;;;26.40;13.38;;;;;;;16.18;74.26;90795.63;4947550;28;20026;-87
2021/06/18 04:41:18;;;;;;;26.30;12.55;;;;;;;16.28;73.95;90786.28;4980429;28;20050;-86
2021/06/18 04:43:56;;;;;;;29.00;14.10;;;;;;;16.39;74.74;90787.13;4996817;28;20491;-86
2021/06/18 04:46:30;;;;;;;22.25;14.32;;;;;;;16.39;74.24;90784.50;4980389;28;20041;-85
2021/06/18 04:49:03;;;;;;;;;;;;;;;16.46;73.14;90795.06;4987220;28;20025;-86
2021/06/18 04:51:38;;;;;;;26.55;13.00;;;;;;;16.52;72.20;90797.34;4996908;28;19909;-86
2021/06/18 04:54:24;;;;;;;22.85;12.85;;;;;;;16.55;71.87;90796.63;4982036;28;20414;-86
2021/06/18 04:57:04;;;;;;;19.55;12.73;;;;;;;16.60;72.07;90798.91;4999198;28;20046;-86
2021/06/18 04:59:45;;;;;;;24.38;12.65;;;;;;;16.76;71.06;90788.88;4966172;28;20053;-86
2021/06/18 05:02:23;;;;;;;31.67;13.15;;;;;;;16.88;71.54;90793.06;5015043;28;20434;-86
2021/06/18 05:04:59;;;;;;;22.45;12.05;;;;;;;16.99;71.62;90796.50;5014194;28;20480;-86
2021/06/18 05:07:36;;;;;;;23.75;12.75;;;;;;;17.27;70.77;90795.09;4997927;28;20030;-86
2021/06/18 05:10:09;;;;;;;22.40;12.00;;;;;;;17.36;70.03;90788.38;4982178;28;20053;-88
2021/06/18 05:12:47;;;;;;;21.65;11.88;;;;;;;17.46;69.64;90791.41;4965064;28;20083;-86
2021/06/18 05:15:25;;;;;;;19.92;11.80;;;;;;;17.49;70.93;90788.78;5014409;28;20100;-86
2021/06/18 05:18:03;;;;;;;22.85;14.60;;;;;;;17.50;72.81;90802.72;4982080;28;20109;-86
2021/06/18 05:20:42;;;;;;;22.95;14.77;;;;;;;17.51;71.95;90804.97;4997565;28;20037;-86
2021/06/18 05:23:19;;;;;;;26.60;13.60;;;;;;;17.56;71.04;90801.19;4995764;28;20056;-86
2021/06/18 05:25:56;;;;;;;27.52;14.38;;;;;;;17.74;71.01;90811.78;5014073;28;20050;-86
2021/06/18 05:28:30;;;;;;;24.08;12.70;;;;;;;17.72;71.58;90801.63;4981932;28;20136;-86
2021/06/18 05:30:57;;;;;;;28.35;13.73;;;;;;;17.88;70.66;90817.13;4997892;28;20101;-86
2021/06/18 05:33:37;;;;;;;27.77;14.10;;;;;;;18.04;69.39;90817.50;4997058;28;20127;-86
2021/06/18 05:36:14;;;;;;;21.30;13.35;;;;;;;18.13;70.09;90828.44;4996600;28;20109;-86
2021/06/18 05:38:49;;;;;;;22.90;12.90;;;;;;;18.30;72.94;90820.91;4996199;28;20041;-86
2021/06/18 05:41:25;;;;;;;22.65;13.55;;;;;;;18.35;70.64;90821.28;4995930;28;20057;-86
2021/06/18 05:44:02;;;;;;;25.13;12.50;;;;;;;18.36;68.16;90820.13;4980818;28;20030;-86
2021/06/18 05:46:42;;;;;;;20.67;11.50;;;;;;;18.45;69.59;90811.88;4996459;28;20053;-86
2021/06/18 05:49:16;;;;;;;19.80;11.32;;;;;;;18.64;67.57;90814.09;5013394;28;20407;-89
2021/06/18 05:51:55;;;;;;;20.88;11.80;;;;;;;18.75;66.96;90813.34;4980289;28;20037;-86
2021/06/18 05:54:33;;;;;;;16.27;11.38;;;;;;;18.84;68.34;90817.09;4997257;28;20105;-86
2021/06/18 05:57:14;;;;;;;21.50;12.57;;;;;;;18.97;68.43;90817.44;4979800;28;20029;-88
2021/06/18 05:59:42;;;;;;;16.85;10.68;;;;;;;19.07;66.50;90811.38;4996252;28;20022;-86
2021/06/18 06:02:17;;;;;;;18.40;11.00;;;;;;;19.21;68.42;90807.19;4996109;28;20407;-86
2021/06/18 06:04:51;;;;;;;23.13;11.40;;;;;;;19.33;69.46;90810.16;4995792;28;20021;-88
2021/06/18 06:07:25;;;;;;;18.85;11.27;;;;;;;19.43;67.83;90811.25;4995429;28;20054;-86
2021/06/18 06:10:02;;;;;;;19.10;10.07;;;;;;;19.53;57.92;90807.81;4979486;28;20030;-86
2021/06/18 06:12:39;;;;;;;20.83;9.73;;;;;;;19.69;59.74;90809.28;5012816;28;20030;-86
2021/06/18 06:15:17;;;;;;;17.98;10.20;;;;;;;19.80;61.85;90812.59;4995786;28;20018;-86
2021/06/18 06:18:02;;;;;;;16.77;9.73;;;;;;;19.94;61.91;90815.16;4978893;28;20033;-87
2021/06/18 06:20:37;;;;;;;;;;;;;;;20.03;63.29;90812.81;4995687;28;20041;-86
2021/06/18 06:23:14;;;;;;;17.00;9.60;;;;;;;20.12;61.08;90806.38;4995577;28;19913;-86
2021/06/18 06:25:43;;;;;;;18.20;10.27;;;;;;;20.20;59.44;90810.44;4995407;28;20096;-86
2021/06/18 06:28:20;;;;;;;15.95;9.13;;;;;;;20.33;61.04;90822.09;4978696;28;20087;-87
2021/06/18 06:30:55;;;;;;;19.67;10.48;;;;;;;20.44;58.05;90822.75;4979789;28;20026;-86
2021/06/18 06:33:36;;;;;;;20.25;9.50;;;;;;;20.55;55.41;90825.34;4995038;28;20025;-88
2021/06/18 06:36:14;;;;;;;17.02;10.05;;;;;;;20.64;60.38;90827.53;5012290;28;20026;-86
2021/06/18 06:38:53;;;;;;;17.23;9.85;;;;;;;20.80;56.32;90824.34;4995128;28;20021;-86
2021/06/18 06:41:33;;;;;;;21.08;10.10;;;;;;;20.98;55.13;90820.38;4995921;28;20030;-86
2021/06/18 06:44:09;;;;;;;13.10;8.77;;;;;;;21.20;57.20;90814.84;4994062;28;20030;-86
2021/06/18 06:46:47;;;;;;;19.73;9.95;;;;;;;21.30;55.64;90816.63;4994887;28;20113;-86
2021/06/18 06:49:28;;;;;;;20.65;9.73;;;;;;;21.39;57.85;90816.97;4995540;28;20026;-86
2021/06/18 06:51:59;;;;;;;19.70;10.30;;;;;;;21.55;60.50;90818.28;5012170;28;20030;-86
2021/06/18 06:54:35;;;;;;;19.35;9.68;;;;;;;21.70;53.75;90823.03;4978408;28;20029;-86
2021/06/18 06:57:17;;;;;;;16.02;9.60;;;;;;;21.76;49.60;90825.22;4994760;28;20022;-86
2021/06/18 07:00:02;;;;;;;18.42;9.30;;;;;;;21.85;49.17;90820.94;4994393;28;20022;-86
2021/06/18 07:02:36;;;;;;;27.55;10.18;;;;;;;22.09;50.98;90824.41;4995632;28;20034;-87
2021/06/18 07:05:14;;;;;;;20.08;9.18;;;;;;;22.21;49.96;90825.75;4995253;28;20061;-87
2021/06/18 07:07:47;;;;;;;25.80;9.98;;;;;;;22.21;49.61;90828.41;4995204;28;20033;-86
2021/06/18 07:10:24;;;;;;;16.85;9.93;;;;;;;22.37;49.24;90825.91;4995119;28;20034;-87
2021/06/18 07:13:00;;;;;;;24.20;10.25;;;;;;;22.38;49.14;90824.00;4976089;28;20026;-87
2021/06/18 07:15:39;;;;;;;18.95;10.35;;;;;;;22.29;47.98;90832.47;4960193;28;20026;-87
2021/06/18 07:18:20;;;;;;;20.05;10.50;;;;;;;22.33;49.70;90825.22;4960269;28;20053;-86
2021/06/18 07:20:58;;;;;;;21.58;10.70;;;;;;;22.52;48.61;90833.66;4974453;28;20416;-88
2021/06/18 07:23:42;;;;;;;20.77;10.02;;;;;;;22.55;48.83;90827.53;4993803;28;20034;-89
2021/06/18 07:26:18;;;;;;;16.80;9.88;;;;;;;22.60;48.87;90837.69;5000500;28;20019;-90
2021/06/18 07:29:00;;;;;;;25.70;10.93;;;;;;;22.58;49.83;90832.03;4980755;28;20030;-86
2021/06/18 07:31:43;;;;;;;20.98;10.85;;;;;;;22.62;48.10;90830.09;4994672;28;20106;-86
2021/06/18 07:34:17;;;;;;;20.77;11.13;;;;;;;22.66;49.04;90828.88;4979656;28;20023;-87
2021/06/18 07:36:59;;;;;;;25.13;11.35;;;;;;;22.71;48.48;90817.03;4995111;28;20026;-86
2021/06/18 07:39:42;;;;;;;19.73;11.57;;;;;;;22.76;47.89;90827.19;4979728;28;20458;-86
2021/06/18 07:42:18;;;;;;;19.77;10.32;;;;;;;22.78;46.99;90822.22;4977901;28;20026;-86
2021/06/18 07:44:58;;;;;;;19.13;10.50;;;;;;;22.82;48.68;90830.88;4994375;28;20488;-85
2021/06/18 07:47:38;;;;;;;26.20;10.50;;;;;;;22.97;48.92;90841.28;4947185;28;20030;-86
2021/06/18 07:50:17;;;;;;;20.75;11.25;;;;;;;23.02;49.39;90836.25;5010241;28;20025;-86
2021/06/18 07:53:02;;;;;;;17.25;10.13;;;;;;;23.05;48.65;90838.13;4998353;28;20088;-86
2021/06/18 07:55:35;;;;;;;;;;;;;;;23.22;48.54;90832.91;4966780;28;20568;-86
2021/06/18 07:58:11;;;;;;;20.52;10.15;;;;;;;23.24;47.20;90833.22;4996999;28;19933;-86
2021/06/18 08:00:48;;;;;;;18.73;10.05;;;;;;;23.30;47.78;90834.25;4965984;28;20030;-89
2021/06/18 08:03:24;;;;;;;19.83;10.55;;;;;;;23.28;47.89;90829.34;5040508;23;20065;-83
2021/06/18 08:06:05;;;;;;;17.38;9.38;;;;;;;23.52;47.95;90837.25;5006353;28;20085;-84
2021/06/18 08:08:40;;;;;;;19.77;10.43;;;;;;;23.58;48.92;90838.28;5006496;28;20036;-84
2021/06/18 08:11:23;;;;;;;18.42;11.05;;;;;;;23.45;46.76;90838.13;5022134;28;20029;-84
2021/06/18 08:13:59;;;;;;;19.40;9.30;;;;;;;23.44;44.04;90836.66;5018599;28;20049;-84
2021/06/18 08:16:38;;;;;;;18.75;9.60;;;;;;;23.55;44.67;90833.78;5018392;28;20044;-84
2021/06/18 08:19:15;;;;;;;20.33;9.15;;;;;;;23.59;42.49;90834.44;5001279;28;20079;-83
2021/06/18 08:21:50;;;;;;;16.88;10.25;;;;;;;23.68;44.49;90821.41;5002252;28;20022;-86
2021/06/18 08:24:23;;;;;;;18.38;9.77;;;;;;;23.73;44.36;90826.22;5000964;28;20033;-84
2021/06/18 08:26:56;;;;;;;18.30;9.80;;;;;;;23.82;43.68;90817.69;5001166;28;20495;-84
2021/06/18 08:29:30;;;;;;;15.75;9.07;;;;;;;23.76;42.80;90830.72;5001989;28;20033;-84
2021/06/18 08:32:10;;;;;;;17.83;9.38;;;;;;;23.70;43.51;90821.72;5001395;28;20026;-84
2021/06/18 08:34:43;;;;;;;18.05;9.77;;;;;;;23.73;43.91;90825.47;5018897;28;20030;-84
2021/06/18 08:37:20;;;;;;;21.75;10.77;;;;;;;23.80;44.37;90810.09;5018944;28;20380;-83
2021/06/18 08:39:54;;;;;;;15.55;9.20;;;;;;;23.93;42.71;90812.16;4999691;28;20017;-85
2021/06/18 08:42:36;;;;;;;20.30;9.43;;;;;;;23.96;43.62;90822.72;5001426;28;20033;-84
2021/06/18 08:45:16;;;;;;;16.98;9.48;;;;;;;24.04;45.41;90818.00;5017502;28;20022;-84
2021/06/18 08:47:58;;;;;;;17.45;9.60;;;;;;;23.99;42.29;90815.81;5018442;28;20021;-86
2021/06/18 08:50:32;;;;;;;21.05;9.63;;;;;;;24.03;44.06;90817.25;5004785;28;20018;-84
2021/06/18 08:53:10;;;;;;;16.63;9.05;;;;;;;24.08;41.06;90816.75;5002056;28;20056;-84
2021/06/18 08:55:42;;;;;;;14.38;9.00;;;;;;;23.96;41.70;90808.63;4986959;28;20030;-84
2021/06/18 08:58:13;;;;;;;18.95;9.55;;;;;;;23.95;40.87;90826.53;4985166;28;20403;-84
2021/06/18 09:00:45;;;;;;;18.45;9.70;;;;;;;24.01;41.74;90826.78;5018216;28;20022;-83
2021/06/18 09:03:48;;;;;;;14.85;9.25;;;;;;;24.30;43.45;90825.00;5000924;28;20026;-84
2021/06/18 09:06:31;;;;;;;26.95;10.20;;;;;;;24.61;45.91;90822.03;5017876;28;20025;-84
2021/06/18 09:09:36;;;;;;;20.08;9.63;;;;;;;24.78;44.07;90817.47;5017968;28;20026;-84
2021/06/18 09:12:13;;;;;;;21.10;9.95;;;;;;;24.82;42.27;90825.38;4999688;28;20026;-84
2021/06/18 09:14:41;;;;;;;18.65;9.50;;;;;;;24.77;41.67;90819.38;4981463;28;20532;-83
2021/06/18 09:17:20;;;;;;;19.33;10.13;;;;;;;24.68;41.88;90824.53;4993870;28;20029;-84
2021/06/18 09:19:49;;;;;;;14.80;9.57;;;;;;;24.92;44.22;90817.13;4981501;28;20369;-84
2021/06/18 09:22:44;;;;;;;17.35;9.95;;;;;;;25.07;42.85;90825.50;4981448;28;20029;-84
2021/06/18 09:25:17;;;;;;;16.42;10.38;;;;;;;24.82;41.80;90812.03;4983971;28;20064;-85
2021/06/18 09:27:58;;;;;;;24.63;10.68;;;;;;;24.77;42.16;90818.59;4981198;28;20072;-83
2021/06/18 09:30:36;;;;;;;20.33;10.15;;;;;;;24.84;43.41;90823.78;4980086;28;20031;-86
2021/06/18 09:33:26;;;;;;;20.15;9.65;;;;;;;25.00;43.08;90823.00;4996356;28;20022;-84
2021/06/18 09:36:15;;;;;;;16.58;9.32;;;;;;;25.10;41.87;90815.91;4996563;28;20018;-84
2021/06/18 09:38:58;;;;;;;17.55;9.77;;;;;;;25.14;42.55;90820.00;4980447;28;20109;-86
2021/06/18 09:41:54;;;;;;;16.23;9.85;;;;;;;25.12;41.25;90822.34;4995615;28;20041;-84
2021/06/18 09:44:39;;;;;;;19.77;10.60;;;;;;;25.14;42.18;90820.00;4997336;28;20042;-84
2021/06/18 09:47:19;;;;;;;22.50;10.13;;;;;;;25.25;43.70;90825.06;4997835;28;20026;-84
2021/06/18 09:49:54;;;;;;;21.85;10.25;;;;;;;25.25;39.58;90823.13;4965201;28;20022;-84
2021/06/18 09:52:25;;;;;;;19.73;10.15;;;;;;;25.26;42.80;90829.22;4979681;28;20117;-84
2021/06/18 09:55:01;;;;;;;17.17;10.18;;;;;;;25.25;40.70;90822.41;4979341;28;20085;-84
2021/06/18 09:57:54;;;;;;;20.13;9.98;;;;;;;25.28;40.46;90819.63;4980307;28;20026;-84
2021/06/18 10:00:27;;;;;;;19.83;10.17;;;;;;;25.23;41.96;90814.84;4996000;28;20022;-84
2021/06/18 10:03:11;;;;;;;21.42;10.25;;;;;;;25.38;41.37;90822.44;4979824;28;20121;-84
2021/06/18 10:05:54;;;;;;;20.97;9.77;;;;;;;25.35;40.69;90817.97;4979530;28;20030;-84
2021/06/18 10:08:37;;;;;;;17.58;9.88;;;;;;;25.36;39.31;90820.19;4978824;28;20455;-86
2021/06/18 10:11:18;;;;;;;21.98;10.68;;;;;;;25.62;40.26;90823.69;4980073;28;20057;-85
2021/06/18 10:14:03;;;;;;;16.02;9.48;;;;;;;25.77;43.26;90824.03;4996039;28;20053;-84
2021/06/18 10:16:41;;;;;;;16.40;9.75;;;;;;;25.69;38.31;90809.38;4995303;28;20426;-85
2021/06/18 10:19:22;;;;;;;16.67;10.02;;;;;;;25.65;38.05;90812.16;4978174;28;20018;-84
2021/06/18 10:22:19;;;;;;;22.48;10.68;;;;;;;25.80;39.77;90825.16;4995834;28;20034;-84
2021/06/18 10:25:03;;;;;;;17.83;10.00;;;;;;;25.94;39.30;90824.75;4993374;28;20026;-84
2021/06/18 10:27:46;;;;;;;23.08;10.13;;;;;;;25.91;39.65;90820.25;4978319;28;20038;-85
2021/06/18 10:30:31;;;;;;;17.23;9.77;;;;;;;26.05;38.92;90819.09;4995180;28;20030;-84
2021/06/18 10:33:23;;;;;;;24.67;10.52;;;;;;;25.97;38.58;90819.31;4994132;28;20117;-86
2021/06/18 10:36:22;;;;;;;20.45;10.02;;;;;;;25.97;36.84;90818.53;4994655;28;20049;-86
2021/06/18 10:39:15;;;;;;;15.85;9.27;;;;;;;26.31;40.46;90814.50;4978790;28;20026;-84
2021/06/18 10:41:52;;;;;;;24.52;10.00;;;;;;;26.49;41.49;90806.72;4994846;28;20022;-84
2021/06/18 10:44:55;;;;;;;21.25;9.68;;;;;;;26.45;37.09;90814.06;4993392;28;20451;-84
2021/06/18 10:47:35;;;;;;;20.05;9.60;;;;;;;26.58;39.80;90806.81;4967364;28;20144;-84
2021/06/18 10:50:10;;;;;;;20.83;9.43;;;;;;;26.47;36.58;90806.41;5009017;28;20052;-86
2021/06/18 10:52:53;;;;;;;17.40;10.13;;;;;;;26.53;34.73;90802.00;4997186;28;20025;-84
2021/06/18 10:55:49;;;;;;;22.38;10.63;;;;;;;26.68;38.21;90797.72;4997721;28;20032;-84
2021/06/18 10:58:28;;;;;;;16.88;10.05;;;;;;;26.81;37.03;90796.94;4997315;28;20037;-84
2021/06/18 11:01:35;;;;;;;20.48;9.90;;;;;;;26.94;38.52;90805.69;5013658;28;20026;-84
2021/06/18 11:04:11;;;;;;;18.98;10.60;;;;;;;26.82;37.24;90795.75;5013334;28;20403;-84
2021/06/18 11:06:53;;;;;;;25.15;10.90;;;;;;;26.86;39.66;90796.41;4980811;28;20059;-84
2021/06/18 11:09:48;;;;;;;22.70;10.52;;;;;;;26.90;38.11;90805.81;5014407;28;20025;-84
2021/06/18 11:12:34;;;;;;;20.33;10.90;;;;;;;27.05;37.61;90800.72;5014898;28;20022;-84
2021/06/18 11:15:09;;;;;;;23.85;11.57;;;;;;;26.99;39.95;90807.78;5014443;28;20030;-86
2021/06/18 11:18:01;;;;;;;19.17;11.43;;;;;;;27.15;41.76;90798.91;5014663;28;20057;-84
2021/06/18 11:20:37;;;;;;;33.50;12.30;;;;;;;27.25;40.51;90807.75;4997173;28;20415;-84
2021/06/18 11:23:20;;;;;;;26.48;12.45;;;;;;;27.43;40.88;90807.91;5014272;28;20026;-84
2021/06/18 11:26:20;;;;;;;22.15;11.85;;;;;;;27.51;40.66;90803.78;4996939;28;20112;-84
2021/06/18 11:29:00;;;;;;;19.77;11.73;;;;;;;27.71;39.74;90800.78;4996780;28;20030;-84
2021/06/18 11:31:50;;;;;;;22.15;11.68;;;;;;;27.61;39.41;90793.88;4980001;28;20054;-85
2021/06/18 11:34:36;;;;;;;21.65;11.85;;;;;;;27.50;37.25;90794.25;4996410;28;20026;-84
2021/06/18 11:37:13;;;;;;;21.80;12.27;;;;;;;27.52;39.52;90786.53;5013386;28;20503;-86
2021/06/18 11:39:46;;;;;;;25.33;11.98;;;;;;;27.76;40.17;90786.84;4980759;28;20021;-84
2021/06/18 11:42:25;;;;;;;18.08;12.25;;;;;;;27.93;39.14;90779.38;4996744;28;20021;-85
2021/06/18 11:45:05;;;;;;;22.50;12.30;;;;;;;27.94;37.44;90775.50;5013118;28;20034;-85
2021/06/18 11:47:45;;;;;;;21.67;12.23;;;;;;;27.70;38.57;90787.84;5013683;28;20025;-84
2021/06/18 11:50:42;;;;;;;18.30;11.70;;;;;;;27.74;39.09;90786.53;4984888;28;20041;-84
2021/06/18 11:53:21;;;;;;;19.42;12.55;;;;;;;27.97;37.24;90781.91;5001179;28;20036;-86
2021/06/18 11:56:04;;;;;;;23.77;12.60;;;;;;;27.84;35.76;90780.06;4983295;28;20483;-84
2021/06/18 11:58:45;;;;;;;22.65;12.18;;;;;;;28.11;38.87;90779.44;4981841;28;20030;-84
2021/06/18 12:01:29;;;;;;;25.58;12.75;;;;;;;28.08;38.00;90780.31;4981426;28;20511;-85
2021/06/18 12:04:12;;;;;;;23.63;13.55;;;;;;;27.99;37.93;90771.53;4981143;28;20034;-84
2021/06/18 12:06:47;;;;;;;23.30;13.27;;;;;;;27.61;39.03;90778.56;4995807;28;20030;-83
2021/06/18 12:09:34;;;;;;;23.65;13.52;;;;;;;27.65;37.83;90776.50;4995805;28;20026;-84
2021/06/18 12:12:08;;;;;;;27.13;13.25;;;;;;;27.87;38.89;90775.75;4980455;28;20026;-84
2021/06/18 12:15:02;;;;;;;28.38;13.95;;;;;;;27.70;37.96;90777.88;4999435;28;20029;-84
2021/06/18 12:17:42;;;;;;;24.48;13.32;;;;;;;27.72;37.91;90775.50;4997336;28;20491;-84